Tasman — ZDKI2 — position and weather

sailwx.info

Track history (hours):
 
Tides and Currents Weather Stations Pressure Air Temp Water Temp Dewpoint Dewpoint Depression Visibility Wind Speed Wind Dir Waves Ship Positions

Tasman

Last reported at 2017-Feb-19 20:04 UTC. Time now 2017-Feb-20 13:52 UTC.
Position N 41°06' E 001°12'.

Length 90 m; draft 4 m.

Type: Ship. MMSI: 23617000.

Date/timePositionNaut miles runAvg speedWind from/ knotsBaromVisibWave heightAir tempDewpointWater temp
2017-Feb-19 20:04N 41°06' E 001°12'0 0.0
2017-Feb-19 19:24N 41°06' E 001°12'0 0.0
2017-Feb-19 18:33N 41°06' E 001°12'0 0.0
2017-Feb-19 17:32N 41°06' E 001°12'0 0.0
2017-Feb-19 16:32N 41°06' E 001°12'0 0.0
2017-Feb-19 15:24N 41°06' E 001°12'0 0.0
2017-Feb-19 14:28N 41°06' E 001°12'0 0.0
2017-Feb-19 13:10N 41°06' E 001°12'0 0.0
2017-Feb-19 11:21N 41°06' E 001°12'0 0.0
2017-Feb-19 10:31N 41°06' E 001°12'0 0.0
2017-Feb-19 09:15N 41°06' E 001°12'0 0.0
2017-Feb-19 08:23N 41°06' E 001°12'0 0.0
2017-Feb-19 07:27N 41°06' E 001°12'0 0.0
2017-Feb-19 06:19N 41°06' E 001°12'0 0.0
2017-Feb-19 04:33N 41°06' E 001°12'0 0.0
2017-Feb-19 02:30N 41°06' E 001°12'0 0.0
2017-Feb-19 01:33N 41°06' E 001°12'0 0.0
2017-Feb-19 00:28N 41°06' E 001°12'0 0.0
2017-Feb-18 23:10N 41°06' E 001°12'0 0.0
2017-Feb-18 22:33N 41°06' E 001°12'0 0.0
2017-Feb-18 21:07N 41°06' E 001°12'0 0.0
2017-Feb-18 20:34N 41°06' E 001°12'0 0.0
2017-Feb-18 14:26N 41°06' E 001°12'0 0.0
2017-Feb-17 19:24N 41°06' E 001°12'0 0.0
2017-Feb-17 16:16N 41°06' E 001°12'215 5.3
2017-Feb-15 23:33N 43°23' E 004°56'2 0.1
2017-Feb-15 07:26N 43°25' E 004°56'0 0.0
2017-Feb-14 23:20N 43°25' E 004°56'164 9.0
2017-Feb-14 05:06N 41°09' E 002°51'610.3
2017-Feb-14 04:33N 41°05' E 002°46'1010.3
2017-Feb-14 03:33N 40°57' E 002°38'1110.9
2017-Feb-14 02:33N 40°48' E 002°29'2410.7
2017-Feb-14 00:20N 40°29' E 002°10'911.1
2017-Feb-13 23:33N 40°23' E 002°03'1111.1
2017-Feb-13 22:33N 40°14' E 001°54'1111.3
2017-Feb-13 21:33N 40°04' E 001°46'1110.7
2017-Feb-13 20:33N 39°56' E 001°37'1110.6
2017-Feb-13 19:33N 39°47' E 001°29'15210.8
2017-Feb-13 05:31N 37°43' W 000°22'1211.3
2017-Feb-13 04:28N 37°33' W 000°31'1410.7
2017-Feb-13 03:11N 37°24' W 000°44'22810.8
2017-Feb-12 06:07N 36°01' W 005°09'713.1
2017-Feb-12 05:33N 35°60' W 005°17'1313.0
2017-Feb-12 04:31N 35°56' W 005°34'1313.7
2017-Feb-12 03:33N 35°55' W 005°50'255 8.8
2017-Feb-10 22:32N 38°32' W 010°03'1010.5
2017-Feb-10 21:33N 38°42' W 010°05'1110.4
2017-Feb-10 20:32N 38°53' W 010°07'1110.9
2017-Feb-10 19:33N 39°03' W 010°07'  
Track history (hours):
 
Tides and Currents Weather Stations Pressure Air Temp Water Temp Dewpoint Dewpoint Depression Visibility Wind Speed Wind Dir Waves Ship Positions

Tasman

Last reported at 2017-Feb-19 20:04 UTC. Time now 2017-Feb-20 13:52 UTC.
Position N 41°06' E 001°12'.

Length 90 m; draft 4 m.

Type: Ship. MMSI: 23617000.

Date/timePositionNaut miles runAvg speedWind from/ knotsBaromVisibWave heightAir tempDewpointWater temp
2017-Feb-19 20:04N 41°06' E 001°12'0 0.0
2017-Feb-19 19:24N 41°06' E 001°12'0 0.0
2017-Feb-19 18:33N 41°06' E 001°12'0 0.0
2017-Feb-19 17:32N 41°06' E 001°12'0 0.0
2017-Feb-19 16:32N 41°06' E 001°12'0 0.0
2017-Feb-19 15:24N 41°06' E 001°12'0 0.0
2017-Feb-19 14:28N 41°06' E 001°12'0 0.0
2017-Feb-19 13:10N 41°06' E 001°12'0 0.0
2017-Feb-19 11:21N 41°06' E 001°12'0 0.0
2017-Feb-19 10:31N 41°06' E 001°12'0 0.0
2017-Feb-19 09:15N 41°06' E 001°12'0 0.0
2017-Feb-19 08:23N 41°06' E 001°12'0 0.0
2017-Feb-19 07:27N 41°06' E 001°12'0 0.0
2017-Feb-19 06:19N 41°06' E 001°12'0 0.0
2017-Feb-19 04:33N 41°06' E 001°12'0 0.0
2017-Feb-19 02:30N 41°06' E 001°12'0 0.0
2017-Feb-19 01:33N 41°06' E 001°12'0 0.0
2017-Feb-19 00:28N 41°06' E 001°12'0 0.0
2017-Feb-18 23:10N 41°06' E 001°12'0 0.0
2017-Feb-18 22:33N 41°06' E 001°12'0 0.0
2017-Feb-18 21:07N 41°06' E 001°12'0 0.0
2017-Feb-18 20:34N 41°06' E 001°12'0 0.0
2017-Feb-18 14:26N 41°06' E 001°12'0 0.0
2017-Feb-17 19:24N 41°06' E 001°12'0 0.0
2017-Feb-17 16:16N 41°06' E 001°12'215 5.3
2017-Feb-15 23:33N 43°23' E 004°56'2 0.1
2017-Feb-15 07:26N 43°25' E 004°56'0 0.0
2017-Feb-14 23:20N 43°25' E 004°56'164 9.0
2017-Feb-14 05:06N 41°09' E 002°51'610.3
2017-Feb-14 04:33N 41°05' E 002°46'1010.3
2017-Feb-14 03:33N 40°57' E 002°38'1110.9
2017-Feb-14 02:33N 40°48' E 002°29'2410.7
2017-Feb-14 00:20N 40°29' E 002°10'911.1
2017-Feb-13 23:33N 40°23' E 002°03'1111.1
2017-Feb-13 22:33N 40°14' E 001°54'1111.3
2017-Feb-13 21:33N 40°04' E 001°46'1110.7
2017-Feb-13 20:33N 39°56' E 001°37'1110.6
2017-Feb-13 19:33N 39°47' E 001°29'15210.8
2017-Feb-13 05:31N 37°43' W 000°22'1211.3
2017-Feb-13 04:28N 37°33' W 000°31'1410.7
2017-Feb-13 03:11N 37°24' W 000°44'22810.8
2017-Feb-12 06:07N 36°01' W 005°09'713.1
2017-Feb-12 05:33N 35°60' W 005°17'1313.0
2017-Feb-12 04:31N 35°56' W 005°34'1313.7
2017-Feb-12 03:33N 35°55' W 005°50'255 8.8
2017-Feb-10 22:32N 38°32' W 010°03'1010.5
2017-Feb-10 21:33N 38°42' W 010°05'1110.4
2017-Feb-10 20:32N 38°53' W 010°07'1110.9
2017-Feb-10 19:33N 39°03' W 010°07'  

Dump ship's entire track history